createdAt,value
2019-02-15T21:47:26.452Z,45.70
2019-02-15T21:49:58.113Z,45.60
2019-02-15T21:52:29.634Z,45.70
2019-02-15T21:55:02.419Z,45.70
2019-02-15T21:57:34.012Z,45.80
2019-02-15T22:00:06.314Z,45.90
2019-02-15T22:02:39.604Z,45.90
2019-02-15T22:05:11.089Z,45.90
2019-02-15T22:07:42.644Z,45.80
2019-02-15T22:10:14.174Z,45.70
2019-02-15T22:12:45.729Z,45.30
2019-02-15T22:15:17.294Z,44.60
2019-02-15T22:17:48.825Z,44.20
2019-02-15T22:20:26.677Z,43.60
2019-02-15T22:22:54.028Z,43.60
2019-02-15T22:25:25.822Z,43.30
2019-02-15T22:27:57.461Z,43.20
2019-02-15T22:30:29.195Z,43.40
2019-02-15T22:33:02.223Z,43.10
2019-02-15T22:35:34.016Z,43.00
2019-02-15T22:38:05.482Z,43.00
2019-02-15T22:40:39.322Z,42.70
2019-02-15T22:43:17.486Z,42.70
2019-02-15T22:45:48.884Z,42.70
2019-02-15T22:48:20.770Z,42.60
2019-02-15T22:50:52.328Z,42.50
2019-02-15T22:53:23.821Z,42.50
2019-02-15T22:55:55.504Z,42.40
2019-02-15T22:58:27.049Z,42.30
2019-02-15T23:01:08.548Z,42.20
2019-02-15T23:03:40.310Z,42.00
2019-02-15T23:06:11.631Z,41.90
2019-02-15T23:08:43.306Z,41.90
2019-02-15T23:11:15.756Z,41.90
2019-02-15T23:13:47.328Z,42.60
2019-02-15T23:16:18.687Z,41.90
2019-02-15T23:18:50.255Z,41.90
2019-02-15T23:21:22.154Z,41.80
2019-02-15T23:23:53.608Z,41.90
2019-02-15T23:26:25.096Z,41.80
2019-02-15T23:28:56.596Z,41.80
2019-02-15T23:31:28.384Z,42.30
2019-02-15T23:33:59.948Z,41.60
2019-02-15T23:36:31.564Z,41.50
2019-02-15T23:39:03.055Z,41.50
2019-02-15T23:41:34.581Z,41.60
2019-02-15T23:44:06.022Z,41.40
2019-02-15T23:46:37.470Z,41.40
2019-02-15T23:49:09.214Z,41.20
2019-02-15T23:51:42.466Z,41.40
2019-02-15T23:54:13.765Z,41.40
2019-02-15T23:56:45.268Z,41.50
2019-02-15T23:59:16.884Z,41.30
